createdAt,value
2022-11-05T00:00:36.213Z,8.70
2022-11-05T00:03:21.578Z,9.83
2022-11-05T00:06:09.593Z,7.00
2022-11-05T00:08:59.298Z,6.50
2022-11-05T00:11:45.934Z,8.73
2022-11-05T00:14:31.532Z,6.70
2022-11-05T00:16:58.439Z,6.20
2022-11-05T00:19:25.202Z,7.13
2022-11-05T00:22:10.495Z,6.53
2022-11-05T00:24:55.964Z,7.77
2022-11-05T00:27:25.674Z,8.23
2022-11-05T00:29:52.634Z,8.97
2022-11-05T00:32:19.358Z,5.73
2022-11-05T00:34:45.989Z,7.00
2022-11-05T00:37:12.574Z,6.40
2022-11-05T00:39:39.195Z,6.80
2022-11-05T00:42:24.495Z,5.73
2022-11-05T00:45:03.375Z,8.43
2022-11-05T00:47:51.739Z,5.87
2022-11-05T00:50:20.035Z,10.53
2022-11-05T00:57:05.565Z,5.50
2022-11-05T00:59:32.173Z,5.50
2022-11-05T01:01:59.299Z,5.00
2022-11-05T01:04:26.109Z,4.37
2022-11-05T01:06:52.673Z,3.20
2022-11-05T01:09:19.346Z,3.77
2022-11-05T01:11:46.315Z,4.33
2022-11-05T01:14:15.867Z,5.47
2022-11-05T01:16:42.647Z,4.47
2022-11-05T01:19:10.503Z,6.33
2022-11-05T01:21:37.404Z,3.10
2022-11-05T01:24:04.572Z,3.20
2022-11-05T01:26:31.216Z,4.83
2022-11-05T01:29:00.493Z,6.20
2022-11-05T01:31:28.528Z,4.83
2022-11-05T01:33:55.236Z,4.97
2022-11-05T01:36:21.845Z,3.67
2022-11-05T01:38:48.437Z,4.93
2022-11-05T01:41:15.062Z,7.53
2022-11-05T01:43:59.918Z,5.10
2022-11-05T01:46:40.239Z,8.77
2022-11-05T01:49:18.795Z,8.30
2022-11-05T01:51:46.056Z,6.27
2022-11-05T01:54:16.652Z,7.30
2022-11-05T01:56:49.499Z,8.73
2022-11-05T01:59:28.188Z,7.67
2022-11-05T02:02:00.231Z,12.27
2022-11-05T02:04:35.790Z,5.93
2022-11-05T02:07:09.280Z,8.93
2022-11-05T02:09:43.683Z,6.43
2022-11-05T02:12:12.356Z,5.40
2022-11-05T02:14:39.019Z,5.37
2022-11-05T02:17:14.734Z,6.80
2022-11-05T02:20:18.642Z,6.13
2022-11-05T02:23:31.285Z,8.10
2022-11-05T02:26:20.046Z,9.60
2022-11-05T02:29:25.791Z,7.50
2022-11-05T02:31:59.123Z,5.57
2022-11-05T02:34:54.685Z,8.07
2022-11-05T02:37:40.250Z,14.37
2022-11-05T02:40:25.626Z,8.97
2022-11-05T02:43:03.442Z,8.27
2022-11-05T02:45:33.008Z,6.17
2022-11-05T02:48:37.031Z,5.87
2022-11-05T02:51:12.359Z,8.50
2022-11-05T02:53:48.491Z,10.17
2022-11-05T02:56:36.828Z,7.43
2022-11-05T02:59:03.508Z,9.47
2022-11-05T03:01:30.255Z,13.80
2022-11-05T03:04:03.599Z,12.43
2022-11-05T03:07:12.362Z,12.47
2022-11-05T03:09:57.649Z,9.63
2022-11-05T03:13:03.727Z,10.97
2022-11-05T03:15:47.135Z,13.47
2022-11-05T03:18:35.333Z,11.33
2022-11-05T03:21:13.928Z,9.63
2022-11-05T03:23:56.075Z,11.53
2022-11-05T03:27:05.066Z,12.03
2022-11-05T03:29:41.189Z,12.73
2022-11-05T03:32:09.579Z,10.13
2022-11-05T03:34:42.379Z,10.20
2022-11-05T03:37:10.715Z,13.40
2022-11-05T03:39:43.264Z,9.00
2022-11-05T03:42:15.727Z,8.40
2022-11-05T03:44:58.404Z,12.03
2022-11-05T03:47:35.498Z,6.97
2022-11-05T03:50:13.040Z,8.33
2022-11-05T03:52:48.921Z,8.00
2022-11-05T03:55:22.232Z,10.83
2022-11-05T03:57:53.612Z,8.77
2022-11-05T04:00:21.341Z,8.33
2022-11-05T04:02:48.080Z,10.77
2022-11-05T04:05:14.914Z,6.03
2022-11-05T04:08:02.840Z,9.40
2022-11-05T04:10:48.099Z,7.10
2022-11-05T04:13:26.798Z,5.03
2022-11-05T04:16:13.571Z,4.07
2022-11-05T04:18:40.727Z,5.60
2022-11-05T04:21:27.490Z,4.93
2022-11-05T04:24:09.493Z,4.70
2022-11-05T04:26:41.881Z,3.83
2022-11-05T04:29:27.216Z,4.63
2022-11-05T04:31:54.515Z,4.43
2022-11-05T04:34:24.656Z,5.27
2022-11-05T04:36:53.020Z,4.33
2022-11-05T04:39:20.596Z,6.07
2022-11-05T04:41:50.301Z,4.27
2022-11-05T04:44:17.201Z,5.20
2022-11-05T04:46:43.918Z,5.00
2022-11-05T04:49:10.541Z,5.37
2022-11-05T04:51:37.153Z,6.53
2022-11-05T04:54:03.919Z,6.97
2022-11-05T04:56:30.599Z,4.20
2022-11-05T04:58:57.178Z,6.83
2022-11-05T05:01:25.390Z,6.27
2022-11-05T05:03:53.841Z,5.70
2022-11-05T05:06:21.401Z,4.67
2022-11-05T05:08:49.788Z,3.63
2022-11-05T05:11:20.144Z,3.87
2022-11-05T05:13:48.297Z,3.57
2022-11-05T05:16:24.420Z,4.17
2022-11-05T05:18:52.066Z,5.97
2022-11-05T05:21:38.923Z,5.03
2022-11-05T05:24:08.612Z,4.47
2022-11-05T05:26:40.877Z,5.63
2022-11-05T05:29:08.238Z,6.63
2022-11-05T05:31:35.031Z,3.70
2022-11-05T05:34:02.040Z,4.50
2022-11-05T05:36:28.664Z,3.10
2022-11-05T05:38:55.263Z,4.00
2022-11-05T05:41:21.926Z,5.67
2022-11-05T05:43:48.615Z,4.93
2022-11-05T05:46:17.617Z,3.33
2022-11-05T05:48:48.981Z,3.77
2022-11-05T05:51:15.678Z,5.00
2022-11-05T05:53:42.290Z,3.83
2022-11-05T05:56:08.908Z,3.60
2022-11-05T05:58:37.752Z,4.70
2022-11-05T06:01:07.990Z,4.73
2022-11-05T06:03:35.114Z,5.10
2022-11-05T06:06:03.501Z,4.83
2022-11-05T06:08:30.683Z,8.47
2022-11-05T06:10:58.142Z,6.50
2022-11-05T06:13:25.649Z,7.60
2022-11-05T06:15:52.546Z,6.37
2022-11-05T06:18:19.691Z,5.37
2022-11-05T06:20:46.296Z,4.23
2022-11-05T06:23:13.303Z,5.23
2022-11-05T06:25:41.576Z,3.97
2022-11-05T06:28:08.285Z,3.33
2022-11-05T06:30:35.076Z,5.43
2022-11-05T06:33:05.651Z,4.17
2022-11-05T06:35:32.485Z,6.83
2022-11-05T06:38:01.826Z,7.13
2022-11-05T06:40:29.553Z,4.47
2022-11-05T06:42:56.196Z,5.20
2022-11-05T06:45:22.857Z,4.70
2022-11-05T06:47:55.267Z,6.90
2022-11-05T06:50:21.901Z,5.30
2022-11-05T06:52:59.838Z,6.87
2022-11-05T06:55:28.782Z,7.43
2022-11-05T06:57:56.061Z,7.97
2022-11-05T07:00:23.693Z,7.30
2022-11-05T07:02:50.360Z,6.67
2022-11-05T07:05:17.627Z,8.43
2022-11-05T07:07:45.598Z,7.80
2022-11-05T07:10:15.406Z,7.73
2022-11-05T07:12:42.408Z,8.63
2022-11-05T07:15:10.737Z,8.70
2022-11-05T07:17:37.545Z,7.93
2022-11-05T07:20:05.942Z,11.30
2022-11-05T07:22:33.213Z,10.17
2022-11-05T07:24:59.918Z,6.63
2022-11-05T07:27:26.689Z,8.03
2022-11-05T07:29:53.386Z,7.47
2022-11-05T07:32:20.027Z,8.53
2022-11-05T07:34:46.695Z,6.73
2022-11-05T07:37:13.436Z,10.17
2022-11-05T07:39:40.284Z,11.00
2022-11-05T07:42:06.963Z,6.97
2022-11-05T07:44:33.960Z,8.77
2022-11-05T07:47:00.581Z,9.10
2022-11-05T07:49:27.234Z,8.63
2022-11-05T07:51:53.875Z,8.57
2022-11-05T07:54:20.508Z,8.27
2022-11-05T07:56:47.811Z,8.40
2022-11-05T07:59:14.405Z,10.57
2022-11-05T08:01:41.277Z,9.43
2022-11-05T08:04:07.952Z,11.70
2022-11-05T08:06:34.649Z,7.77
2022-11-05T08:09:01.246Z,11.33
2022-11-05T08:11:27.915Z,9.20
2022-11-05T08:13:54.623Z,8.50
2022-11-05T08:16:21.195Z,11.67
2022-11-05T08:18:48.556Z,8.73
2022-11-05T08:21:15.317Z,11.67
2022-11-05T08:23:42.902Z,12.70
2022-11-05T08:26:09.985Z,14.50
2022-11-05T08:28:36.616Z,27.60
2022-11-05T08:31:03.246Z,11.40
2022-11-05T08:33:31.427Z,8.90
2022-11-05T08:36:02.877Z,10.87
2022-11-05T08:38:29.955Z,13.17
2022-11-05T08:40:57.873Z,9.80
2022-11-05T08:43:24.431Z,8.50
2022-11-05T08:45:51.084Z,14.33
2022-11-05T08:48:19.584Z,9.93
2022-11-05T08:50:48.437Z,10.33
2022-11-05T08:53:15.972Z,10.00
2022-11-05T08:55:43.931Z,17.23
2022-11-05T08:58:12.948Z,14.67
2022-11-05T09:00:40.082Z,12.63
2022-11-05T09:03:08.925Z,12.77
2022-11-05T09:05:38.736Z,9.33
2022-11-05T09:08:06.564Z,11.93
2022-11-05T09:10:33.398Z,10.40
2022-11-05T09:13:00.153Z,9.27
2022-11-05T09:15:26.795Z,9.87
2022-11-05T09:17:53.630Z,9.10
2022-11-05T09:20:20.393Z,17.27
2022-11-05T09:22:47.813Z,8.10
2022-11-05T09:25:15.898Z,7.37
2022-11-05T09:27:43.610Z,9.53
2022-11-05T09:30:11.865Z,8.03
2022-11-05T09:32:38.795Z,11.37
2022-11-05T09:35:06.533Z,14.17
2022-11-05T09:37:33.216Z,8.20
2022-11-05T09:40:00.058Z,11.97
2022-11-05T09:42:40.401Z,9.57
2022-11-05T09:45:20.365Z,11.13
2022-11-05T09:47:56.135Z,11.90
2022-11-05T09:50:33.648Z,9.97
2022-11-05T09:53:01.645Z,8.03
2022-11-05T09:55:38.571Z,10.40
2022-11-05T09:58:16.475Z,10.80
2022-11-05T10:00:44.530Z,17.33
2022-11-05T10:03:15.464Z,18.53
2022-11-05T10:05:43.033Z,11.00
2022-11-05T10:08:18.074Z,15.33
2022-11-05T10:10:49.809Z,13.00
2022-11-05T10:13:25.395Z,17.83
2022-11-05T10:16:00.128Z,12.93
2022-11-05T10:18:34.283Z,10.40
2022-11-05T10:21:01.269Z,8.80
2022-11-05T10:23:28.606Z,14.23
2022-11-05T10:25:58.680Z,17.53
2022-11-05T10:28:27.904Z,12.57
2022-11-05T10:31:00.773Z,9.17
2022-11-05T10:33:50.490Z,12.90
2022-11-05T10:36:31.912Z,13.27
2022-11-05T10:39:19.560Z,18.37
2022-11-05T10:41:54.150Z,13.97
2022-11-05T10:44:44.114Z,15.27
2022-11-05T10:47:43.635Z,13.30
2022-11-05T10:50:17.051Z,11.80
2022-11-05T10:53:02.586Z,11.50
2022-11-05T10:55:32.685Z,13.13
2022-11-05T10:58:15.758Z,12.63
2022-11-05T11:00:45.170Z,9.90
2022-11-05T11:03:53.229Z,13.40
2022-11-05T11:06:27.251Z,9.97
2022-11-05T11:08:56.644Z,11.23
2022-11-05T11:11:34.044Z,12.13
2022-11-05T11:14:14.036Z,10.23
2022-11-05T11:16:46.490Z,13.33
2022-11-05T11:19:33.948Z,12.83
2022-11-05T11:22:03.546Z,13.47
2022-11-05T11:24:51.861Z,12.63
2022-11-05T11:27:23.940Z,16.53
2022-11-05T11:30:04.975Z,13.47
2022-11-05T11:32:39.274Z,9.20
2022-11-05T11:35:17.921Z,14.57
2022-11-05T11:37:46.180Z,14.07
2022-11-05T11:40:16.920Z,12.10
2022-11-05T11:42:54.712Z,11.47
2022-11-05T11:45:54.871Z,12.23
2022-11-05T11:48:29.608Z,12.40
2022-11-05T11:50:57.956Z,10.83
2022-11-05T11:53:28.643Z,9.60
2022-11-05T11:55:55.216Z,9.73
2022-11-05T11:58:23.482Z,10.07
2022-11-05T12:00:56.689Z,8.00
2022-11-05T12:03:33.059Z,13.07
2022-11-05T12:06:20.681Z,13.00
2022-11-05T12:09:21.088Z,18.93
2022-11-05T12:12:21.024Z,12.60
2022-11-05T12:14:53.376Z,16.80
2022-11-05T12:17:29.089Z,14.57
2022-11-05T12:20:20.353Z,9.20
2022-11-05T12:23:08.817Z,14.93
2022-11-05T12:25:51.683Z,10.53
2022-11-05T12:28:36.253Z,11.37
2022-11-05T12:31:19.717Z,16.17
2022-11-05T12:34:03.100Z,4.97
2022-11-05T12:36:38.486Z,9.67
2022-11-05T12:39:26.810Z,6.23
2022-11-05T12:42:01.121Z,4.80
2022-11-05T12:44:48.871Z,9.53
2022-11-05T12:47:37.994Z,6.77
2022-11-05T12:50:13.518Z,4.53
2022-11-05T12:52:55.125Z,6.30
2022-11-05T12:55:25.221Z,7.00
2022-11-05T12:57:54.719Z,6.27
2022-11-05T13:00:24.363Z,6.03
2022-11-05T13:02:59.981Z,5.40
2022-11-05T13:05:36.213Z,3.73
2022-11-05T13:08:21.598Z,9.47
2022-11-05T13:11:03.400Z,4.27
2022-11-05T13:13:43.885Z,7.30
2022-11-05T13:16:24.137Z,19.10
2022-11-05T13:18:54.990Z,9.37
2022-11-05T13:21:25.093Z,6.53
2022-11-05T13:24:07.018Z,5.83
2022-11-05T13:26:43.363Z,5.60
2022-11-05T13:29:34.321Z,4.20
2022-11-05T13:32:22.905Z,5.40
2022-11-05T13:34:49.779Z,3.13
2022-11-05T13:37:42.169Z,2.03
2022-11-05T13:40:13.204Z,10.97
2022-11-05T13:43:02.070Z,4.77
2022-11-05T13:45:47.659Z,4.30
2022-11-05T13:48:36.964Z,6.23
2022-11-05T13:51:09.439Z,5.77
2022-11-05T13:53:54.420Z,5.00
2022-11-05T13:56:45.070Z,5.40
2022-11-05T13:59:36.119Z,10.30
2022-11-05T14:02:16.627Z,18.17
2022-11-05T14:05:00.534Z,14.00
2022-11-05T14:07:33.584Z,44.80
2022-11-05T14:10:34.780Z,19.47
2022-11-05T14:13:25.273Z,18.17
2022-11-05T14:16:04.129Z,16.93
2022-11-05T14:18:43.081Z,12.33
2022-11-05T14:21:27.798Z,12.27
2022-11-05T14:24:24.503Z,39.10
2022-11-05T14:27:03.343Z,26.67
2022-11-05T14:29:39.060Z,23.47
2022-11-05T14:32:18.713Z,21.10
2022-11-05T14:35:02.121Z,18.90
2022-11-05T14:37:40.979Z,17.97
2022-11-05T14:40:23.436Z,10.30
2022-11-05T14:43:02.903Z,17.00
2022-11-05T14:45:30.882Z,6.57
2022-11-05T14:48:43.786Z,13.60
2022-11-05T14:51:30.914Z,20.60
2022-11-05T14:54:04.631Z,16.83
2022-11-05T14:56:43.455Z,20.10
2022-11-05T14:59:22.164Z,12.60
2022-11-05T15:01:48.813Z,12.00
2022-11-05T15:04:40.492Z,18.67
2022-11-05T15:07:07.106Z,12.90
2022-11-05T15:09:40.355Z,10.07
2022-11-05T15:12:37.507Z,14.93
2022-11-05T15:15:21.557Z,17.47
2022-11-05T15:17:58.282Z,18.23
2022-11-05T15:20:39.641Z,13.43
2022-11-05T15:23:11.828Z,12.47
2022-11-05T15:26:01.480Z,14.93
2022-11-05T15:28:33.893Z,16.70
2022-11-05T15:31:13.866Z,34.90
2022-11-05T15:33:41.991Z,22.47
2022-11-05T15:36:29.382Z,23.53
2022-11-05T15:39:23.347Z,20.33
2022-11-05T15:41:44.639Z,22.10
2022-11-05T15:44:29.924Z,14.37
2022-11-05T15:47:25.978Z,21.97
2022-11-05T15:50:17.316Z,20.50
2022-11-05T15:52:53.822Z,21.00
2022-11-05T15:55:25.749Z,19.43
2022-11-05T15:57:59.252Z,19.47
2022-11-05T16:00:28.300Z,18.30
2022-11-05T16:02:59.320Z,23.07
2022-11-05T16:05:28.425Z,18.83
2022-11-05T16:07:58.373Z,28.10
2022-11-05T16:10:30.875Z,19.63
2022-11-05T16:12:57.598Z,17.97
2022-11-05T16:15:29.389Z,11.30
2022-11-05T16:18:00.673Z,9.93
2022-11-05T16:20:32.208Z,11.43
2022-11-05T16:23:02.571Z,7.47
2022-11-05T16:25:31.730Z,11.20
2022-11-05T16:27:59.797Z,14.80
2022-11-05T16:30:26.892Z,8.77
2022-11-05T16:32:54.319Z,8.33
2022-11-05T16:35:23.492Z,10.27
2022-11-05T16:37:52.444Z,14.23
2022-11-05T16:40:22.632Z,10.63
2022-11-05T16:42:51.491Z,11.40
2022-11-05T16:45:20.859Z,9.97
2022-11-05T16:47:48.217Z,9.53
2022-11-05T16:50:20.159Z,10.03
2022-11-05T16:52:47.317Z,13.93
2022-11-05T16:55:15.216Z,12.13
2022-11-05T16:57:44.454Z,13.03
2022-11-05T17:00:15.574Z,12.73
2022-11-05T17:02:42.995Z,11.97
2022-11-05T17:05:22.081Z,13.33
2022-11-05T17:07:48.830Z,9.23
2022-11-05T17:10:15.899Z,10.10
2022-11-05T17:12:43.313Z,12.80
2022-11-05T17:15:24.184Z,12.13
2022-11-05T17:17:52.959Z,6.97
2022-11-05T17:20:39.768Z,10.53
2022-11-05T17:23:09.650Z,10.10
2022-11-05T17:25:36.803Z,10.17
2022-11-05T17:28:03.812Z,19.50
2022-11-05T17:30:30.884Z,16.47
2022-11-05T17:32:57.672Z,17.07
2022-11-05T17:35:24.435Z,14.43
2022-11-05T17:37:51.082Z,10.53
2022-11-05T17:40:20.417Z,10.80
2022-11-05T17:42:47.060Z,13.43
2022-11-05T17:45:14.136Z,11.27
2022-11-05T17:47:42.087Z,12.63
2022-11-05T17:50:11.084Z,11.13
2022-11-05T17:52:38.426Z,9.07
2022-11-05T17:55:07.129Z,8.83
2022-11-05T17:57:33.742Z,12.67
2022-11-05T18:00:00.312Z,13.53
2022-11-05T18:02:29.449Z,11.80
2022-11-05T18:04:56.230Z,8.93
2022-11-05T18:07:22.784Z,8.83
2022-11-05T18:09:49.411Z,12.23
2022-11-05T18:12:16.090Z,7.70
2022-11-05T18:14:42.719Z,10.77
2022-11-05T18:17:09.338Z,7.67
2022-11-05T18:19:38.208Z,11.03
2022-11-05T18:22:04.981Z,6.87
2022-11-05T18:24:32.164Z,9.60
2022-11-05T18:26:59.115Z,5.90
2022-11-05T18:29:25.892Z,8.73
2022-11-05T18:31:52.513Z,10.17
2022-11-05T18:34:19.137Z,13.50
2022-11-05T18:36:45.844Z,8.70
2022-11-05T18:39:12.506Z,5.93
2022-11-05T18:41:39.203Z,10.43
2022-11-05T18:44:06.303Z,8.73
2022-11-05T18:46:57.020Z,10.53
2022-11-05T18:49:20.924Z,10.03
2022-11-05T18:51:47.621Z,9.50
2022-11-05T18:54:14.455Z,9.00
2022-11-05T18:56:45.306Z,8.60
2022-11-05T18:59:35.032Z,9.07
2022-11-05T19:01:59.881Z,7.30
2022-11-05T19:04:26.971Z,11.60
2022-11-05T19:06:53.664Z,7.40
2022-11-05T19:09:20.818Z,6.83
2022-11-05T19:11:47.527Z,12.87
2022-11-05T19:14:14.130Z,6.57
2022-11-05T19:16:40.815Z,10.03
2022-11-05T19:19:07.488Z,7.33
2022-11-05T19:21:34.180Z,6.23
2022-11-05T19:24:03.798Z,8.13
2022-11-05T19:26:30.872Z,7.63
2022-11-05T19:28:59.459Z,12.80
2022-11-05T19:31:26.729Z,9.27
2022-11-05T19:33:54.491Z,12.63
2022-11-05T19:36:23.360Z,8.17
2022-11-05T19:38:56.222Z,10.80
2022-11-05T19:41:23.480Z,13.77
2022-11-05T19:43:50.660Z,12.87
2022-11-05T19:46:19.331Z,10.57
2022-11-05T19:48:46.683Z,9.33
2022-11-05T19:51:16.201Z,11.57
2022-11-05T19:53:43.620Z,9.43
2022-11-05T19:56:17.420Z,8.27
2022-11-05T19:58:44.904Z,10.20
2022-11-05T20:01:12.728Z,15.63
2022-11-05T20:03:39.946Z,22.03
2022-11-05T20:06:09.624Z,14.07
2022-11-05T20:08:47.833Z,14.47
2022-11-05T20:11:23.553Z,17.87
2022-11-05T20:13:50.225Z,13.67
2022-11-05T20:16:21.973Z,15.90
2022-11-05T20:18:48.974Z,11.93
2022-11-05T20:21:15.716Z,15.10
2022-11-05T20:23:42.763Z,20.20
2022-11-05T20:26:10.322Z,14.33
2022-11-05T20:28:38.197Z,16.30
2022-11-05T20:31:10.157Z,8.83
2022-11-05T20:33:37.392Z,14.17
2022-11-05T20:36:07.914Z,13.97
2022-11-05T20:38:34.625Z,16.37
2022-11-05T20:41:06.821Z,9.70
2022-11-05T20:43:33.933Z,11.30
2022-11-05T20:46:00.660Z,14.43
2022-11-05T20:48:31.021Z,20.37
2022-11-05T20:50:57.827Z,15.47
2022-11-05T20:53:24.511Z,14.13
2022-11-05T20:55:51.099Z,13.93
2022-11-05T20:58:18.376Z,16.07
2022-11-05T21:00:51.204Z,13.60
2022-11-05T21:03:19.113Z,15.00
2022-11-05T21:05:47.181Z,15.63
2022-11-05T21:08:14.600Z,16.23
2022-11-05T21:10:44.841Z,12.70
2022-11-05T21:13:15.288Z,13.50
2022-11-05T21:15:50.168Z,12.17
2022-11-05T21:18:18.132Z,25.93
2022-11-05T21:20:46.059Z,21.93
2022-11-05T21:23:13.594Z,30.80
2022-11-05T21:25:41.595Z,27.77
2022-11-05T21:28:10.317Z,12.63
2022-11-05T21:30:38.828Z,13.47
2022-11-05T21:33:05.954Z,12.23
2022-11-05T21:35:32.835Z,14.63
2022-11-05T21:38:00.006Z,19.37
2022-11-05T21:40:26.774Z,16.60
2022-11-05T21:42:53.311Z,17.50
2022-11-05T21:45:19.887Z,18.70
2022-11-05T21:47:46.454Z,19.00
2022-11-05T21:50:15.197Z,11.50
2022-11-05T21:53:02.032Z,17.47
2022-11-05T21:55:47.273Z,25.13
2022-11-05T21:58:34.731Z,19.13
2022-11-05T22:01:02.360Z,12.97
2022-11-05T22:03:29.970Z,20.53
2022-11-05T22:05:57.036Z,19.33
2022-11-05T22:08:23.736Z,14.30
2022-11-05T22:10:50.392Z,12.13
2022-11-05T22:13:16.971Z,11.30
2022-11-05T22:15:43.618Z,19.37
2022-11-05T22:18:10.688Z,17.77
2022-11-05T22:20:38.978Z,20.03
2022-11-05T22:23:10.870Z,18.73
2022-11-05T22:25:38.071Z,18.53
2022-11-05T22:28:04.853Z,16.40
2022-11-05T22:30:36.245Z,15.17
2022-11-05T22:33:02.861Z,15.37
2022-11-05T22:35:29.518Z,14.63
2022-11-05T22:37:56.111Z,9.30
2022-11-05T22:40:24.080Z,13.53
2022-11-05T22:42:50.893Z,10.80
2022-11-05T22:45:17.480Z,16.17
2022-11-05T22:47:44.092Z,11.07
2022-11-05T22:50:11.217Z,15.33
2022-11-05T22:52:37.887Z,11.97
2022-11-05T22:55:06.136Z,10.50
2022-11-05T22:57:32.967Z,14.97
2022-11-05T22:59:59.558Z,14.07
2022-11-05T23:02:26.267Z,13.90
2022-11-05T23:04:53.060Z,13.77
2022-11-05T23:07:38.215Z,12.83
2022-11-05T23:10:23.783Z,15.53
2022-11-05T23:12:50.351Z,15.33
2022-11-05T23:15:35.285Z,13.87
2022-11-05T23:18:20.603Z,15.90
2022-11-05T23:21:05.916Z,10.30
2022-11-05T23:23:51.187Z,12.43
2022-11-05T23:26:36.447Z,13.13
2022-11-05T23:29:03.378Z,13.40
2022-11-05T23:31:48.848Z,14.57
2022-11-05T23:34:15.555Z,16.57
2022-11-05T23:37:01.038Z,15.70
2022-11-05T23:39:27.849Z,13.67
2022-11-05T23:42:12.946Z,14.70
2022-11-05T23:44:58.154Z,13.87
2022-11-05T23:47:43.429Z,18.33
2022-11-05T23:50:10.029Z,20.23
2022-11-05T23:52:36.592Z,15.33
2022-11-05T23:55:03.644Z,15.53
2022-11-05T23:57:30.394Z,17.07
2022-11-05T23:59:57.111Z,14.33
